Time;durP1;ratioP1;P1;durP2;ratioP2;P2;SDS_P1;SDS_P2;PMS_P1;PMS_P2;Temp;Humidity;BMP_temperature;BMP_pressure;BME280_temperature;BME280_humidity;BME280_pressure;Samples;Min_cycle;Max_cycle;Signal;HPM_P1;HPM_P2
2023/11/28 00:00:24;;;;;;;55.90;2.45;;;;;;;;;;5050731;28;20234;-72
2023/11/28 00:02:53;;;;;;;55.80;2.50;;;;;;;;;;5050711;28;20232;-72
2023/11/28 00:05:20;;;;;;;55.47;2.43;;;;;;;;;;5050327;28;20231;-72
2023/11/28 00:07:47;;;;;;;55.37;2.70;;;;;;;;;;5050281;28;20899;-72
2023/11/28 00:10:14;;;;;;;55.67;2.50;;;;;;;;;;5050122;28;20456;-72
2023/11/28 00:12:41;;;;;;;55.80;2.77;;;;;;;;;;5053604;28;20477;-73
2023/11/28 00:15:10;;;;;;;55.70;2.70;;;;;;;;;;5054298;28;20814;-73
2023/11/28 00:17:37;;;;;;;55.80;2.30;;;;;;;;;;5054242;28;20299;-73
2023/11/28 00:20:06;;;;;;;55.57;2.50;;;;;;;;;;5053949;28;20670;-73
2023/11/28 00:22:33;;;;;;;55.60;2.70;;;;;;;;;;5053930;28;20473;-73
2023/11/28 00:25:00;;;;;;;55.90;2.63;;;;;;;;;;5053762;28;20514;-73
2023/11/28 00:27:27;;;;;;;55.70;2.70;;;;;;;;;;5054123;28;20453;-73
2023/11/28 00:29:54;;;;;;;55.67;2.63;;;;;;;;;;5053898;28;20446;-72
2023/11/28 00:32:22;;;;;;;55.85;2.85;;;;;;;;;;5054031;28;20598;-72
2023/11/28 00:34:49;;;;;;;55.92;2.40;;;;;;;;;;5054156;28;20198;-72
2023/11/28 00:37:17;;;;;;;55.57;2.37;;;;;;;;;;5053923;28;20223;-72
2023/11/28 00:39:44;;;;;;;55.70;2.60;;;;;;;;;;5053990;28;20676;-72
2023/11/28 00:42:12;;;;;;;55.85;2.90;;;;;;;;;;5053970;28;20230;-72
2023/11/28 00:44:41;;;;;;;55.72;2.33;;;;;;;;;;5053585;28;20235;-72
2023/11/28 00:47:09;;;;;;;55.57;2.97;;;;;;;;;;5053781;28;20730;-72
2023/11/28 00:49:36;;;;;;;55.70;3.13;;;;;;;;;;5053473;28;20453;-72
2023/11/28 00:52:03;;;;;;;55.57;2.40;;;;;;;;;;5053602;28;20478;-72
2023/11/28 00:54:32;;;;;;;55.77;2.57;;;;;;;;;;5053702;28;20827;-72
2023/11/28 00:57:00;;;;;;;55.60;2.60;;;;;;;;;;5053794;28;20454;-72
2023/11/28 00:59:27;;;;;;;55.60;2.37;;;;;;;;;;5053379;28;20456;-72
2023/11/28 01:01:54;;;;;;;55.60;2.50;;;;;;;;;;5053297;28;20982;-72
2023/11/28 01:04:21;;;;;;;55.67;2.93;;;;;;;;;;5053209;28;20493;-72
2023/11/28 01:06:48;;;;;;;55.60;2.40;;;;;;;;;;5053511;28;20457;-72
2023/11/28 01:09:16;;;;;;;55.67;2.50;;;;;;;;;;5053284;28;20949;-72
2023/11/28 01:11:44;;;;;;;55.53;2.80;;;;;;;;;;5053453;28;20474;-72
2023/11/28 01:14:11;;;;;;;55.57;2.67;;;;;;;;;;5053275;28;20924;-72
2023/11/28 01:16:38;;;;;;;55.47;2.70;;;;;;;;;;5053144;28;20455;-72
2023/11/28 01:19:06;;;;;;;55.47;2.57;;;;;;;;;;5052932;28;20464;-72
2023/11/28 01:21:33;;;;;;;55.47;2.80;;;;;;;;;;5052847;28;20465;-72
2023/11/28 01:24:00;;;;;;;55.90;3.13;;;;;;;;;;5052162;28;20485;-72
2023/11/28 01:26:27;;;;;;;55.67;2.80;;;;;;;;;;5053145;28;20935;-72
2023/11/28 01:28:55;;;;;;;55.73;2.80;;;;;;;;;;5053118;28;20454;-72
2023/11/28 01:31:24;;;;;;;55.67;2.50;;;;;;;;;;5052832;28;20453;-72
2023/11/28 01:33:51;;;;;;;55.77;2.57;;;;;;;;;;5052647;28;20478;-72
2023/11/28 01:36:18;;;;;;;55.77;2.97;;;;;;;;;;5053045;28;20458;-72
2023/11/28 01:38:45;;;;;;;55.77;2.90;;;;;;;;;;5052912;28;20473;-72
2023/11/28 01:41:13;;;;;;;55.63;2.53;;;;;;;;;;5052762;28;20822;-72
2023/11/28 01:43:41;;;;;;;55.90;2.77;;;;;;;;;;5052658;28;20449;-72
2023/11/28 01:46:11;;;;;;;55.50;2.50;;;;;;;;;;5052432;28;21017;-72
2023/11/28 01:48:39;;;;;;;55.60;2.60;;;;;;;;;;5052638;28;20814;-72
2023/11/28 01:51:06;;;;;;;55.47;2.40;;;;;;;;;;5052536;28;20842;-71
2023/11/28 01:53:34;;;;;;;55.57;2.30;;;;;;;;;;5052476;28;20547;-72
2023/11/28 01:56:01;;;;;;;55.57;2.73;;;;;;;;;;5052502;28;20459;-72
2023/11/28 01:58:29;;;;;;;55.63;2.60;;;;;;;;;;5052308;28;20451;-71
2023/11/28 02:00:56;;;;;;;55.47;2.60;;;;;;;;;;5052111;28;20450;-72
2023/11/28 02:03:25;;;;;;;55.80;2.50;;;;;;;;;;5053826;28;20469;-72
2023/11/28 02:05:53;;;;;;;55.53;2.60;;;;;;;;;;5053452;28;20489;-72
2023/11/28 02:08:20;;;;;;;55.57;2.60;;;;;;;;;;5054680;28;20453;-72
2023/11/28 02:10:47;;;;;;;55.90;2.80;;;;;;;;;;5053949;28;20450;-72
2023/11/28 02:13:14;;;;;;;55.70;2.80;;;;;;;;;;5052743;28;20227;-71
2023/11/28 02:15:42;;;;;;;55.60;2.43;;;;;;;;;;5051934;28;20813;-71
2023/11/28 02:18:09;;;;;;;55.70;2.60;;;;;;;;;;5052161;28;20445;-71
2023/11/28 02:20:38;;;;;;;55.70;2.80;;;;;;;;;;5051851;28;20446;-71
2023/11/28 02:23:05;;;;;;;55.47;2.80;;;;;;;;;;5051967;28;20488;-71
2023/11/28 02:25:34;;;;;;;55.60;3.03;;;;;;;;;;5051573;28;20492;-71
2023/11/28 02:28:03;;;;;;;55.77;2.80;;;;;;;;;;5051705;28;20454;-71
2023/11/28 02:30:30;;;;;;;55.90;2.90;;;;;;;;;;5051471;28;20461;-71
2023/11/28 02:32:57;;;;;;;55.57;2.90;;;;;;;;;;5051552;28;20480;-71
2023/11/28 02:35:24;;;;;;;55.77;2.90;;;;;;;;;;5050632;28;20810;-72
2023/11/28 02:37:51;;;;;;;55.70;2.70;;;;;;;;;;5050941;28;20463;-72
2023/11/28 02:40:18;;;;;;;55.67;2.57;;;;;;;;;;5051608;28;20450;-72
2023/11/28 02:42:45;;;;;;;55.67;2.67;;;;;;;;;;5051450;28;20473;-72
2023/11/28 02:45:14;;;;;;;55.47;2.50;;;;;;;;;;5051286;28;20485;-72
2023/11/28 02:47:41;;;;;;;55.60;2.30;;;;;;;;;;5051319;28;20981;-72
2023/11/28 02:50:08;;;;;;;55.43;2.67;;;;;;;;;;5051641;28;20450;-72
2023/11/28 02:52:35;;;;;;;55.87;2.67;;;;;;;;;;5051205;28;21010;-72
2023/11/28 02:55:03;;;;;;;55.80;2.67;;;;;;;;;;5051050;28;20450;-72
2023/11/28 02:57:30;;;;;;;55.77;2.90;;;;;;;;;;5051137;28;20464;-72
2023/11/28 02:59:57;;;;;;;55.70;2.97;;;;;;;;;;5051125;28;20828;-72
2023/11/28 03:02:26;;;;;;;55.70;2.70;;;;;;;;;;5050936;28;20471;-72
2023/11/28 03:04:53;;;;;;;55.90;3.03;;;;;;;;;;5051123;28;20492;-72
2023/11/28 03:07:20;;;;;;;55.67;2.80;;;;;;;;;;5051443;28;20456;-72
2023/11/28 03:09:47;;;;;;;55.73;2.70;;;;;;;;;;5050838;28;20461;-72
2023/11/28 03:12:14;;;;;;;55.47;2.27;;;;;;;;;;5050889;28;20469;-72
2023/11/28 03:14:41;;;;;;;55.83;2.57;;;;;;;;;;5050842;28;20814;-72
2023/11/28 03:17:08;;;;;;;55.60;2.30;;;;;;;;;;5050911;28;20445;-72
2023/11/28 03:19:37;;;;;;;55.60;2.80;;;;;;;;;;5051100;28;20450;-72
2023/11/28 03:22:04;;;;;;;55.70;2.50;;;;;;;;;;5051007;28;20564;-72
2023/11/28 03:24:33;;;;;;;55.60;2.37;;;;;;;;;;5050812;28;20807;-72
2023/11/28 03:27:00;;;;;;;55.83;2.67;;;;;;;;;;5051007;28;20456;-72
2023/11/28 03:29:27;;;;;;;55.53;2.37;;;;;;;;;;5050673;28;20449;-72
2023/11/28 03:31:54;;;;;;;55.60;2.30;;;;;;;;;;5050745;28;20465;-72
2023/11/28 03:34:21;;;;;;;55.57;2.37;;;;;;;;;;5050979;28;20450;-72
2023/11/28 03:36:50;;;;;;;55.47;2.33;;;;;;;;;;5050701;28;20456;-73
2023/11/28 03:39:18;;;;;;;55.60;2.30;;;;;;;;;;5050738;28;20454;-72
2023/11/28 03:41:48;;;;;;;55.57;2.40;;;;;;;;;;5050656;28;20523;-73
2023/11/28 03:44:16;;;;;;;55.80;2.90;;;;;;;;;;5050550;28;20457;-72
2023/11/28 03:46:43;;;;;;;55.57;2.87;;;;;;;;;;5052832;28;20489;-73
2023/11/28 03:49:10;;;;;;;55.53;2.40;;;;;;;;;;5054807;28;20495;-73
2023/11/28 03:51:37;;;;;;;55.33;2.30;;;;;;;;;;5054639;28;20469;-73
2023/11/28 03:54:06;;;;;;;55.40;2.20;;;;;;;;;;5054558;28;20461;-72
2023/11/28 03:56:33;;;;;;;55.27;2.30;;;;;;;;;;5054560;28;20452;-73
2023/11/28 03:59:01;;;;;;;55.03;2.20;;;;;;;;;;5054527;28;20449;-72
2023/11/28 04:01:28;;;;;;;55.50;2.70;;;;;;;;;;5054509;28;20489;-73
2023/11/28 04:03:55;;;;;;;55.77;2.87;;;;;;;;;;5054352;28;20457;-73
2023/11/28 04:06:22;;;;;;;55.80;2.53;;;;;;;;;;5054410;28;20493;-72
2023/11/28 04:08:51;;;;;;;55.70;2.40;;;;;;;;;;5054394;28;20458;-72
2023/11/28 04:11:19;;;;;;;55.47;2.20;;;;;;;;;;5054089;28;20465;-73
2023/11/28 04:13:47;;;;;;;55.50;2.50;;;;;;;;;;5054356;28;20447;-73
2023/11/28 04:16:17;;;;;;;55.60;2.20;;;;;;;;;;5054052;28;20456;-72
2023/11/28 04:18:44;;;;;;;55.60;2.40;;;;;;;;;;5054242;28;20450;-72
2023/11/28 04:21:16;;;;;;;55.60;2.60;;;;;;;;;;5054130;28;20445;-72
2023/11/28 04:23:43;;;;;;;55.57;2.43;;;;;;;;;;5053832;28;21080;-72
2023/11/28 04:26:10;;;;;;;55.60;2.30;;;;;;;;;;5053937;28;20484;-72
2023/11/28 04:28:39;;;;;;;55.57;2.67;;;;;;;;;;5054097;28;20460;-72
2023/11/28 04:31:06;;;;;;;55.40;2.40;;;;;;;;;;5053843;28;20442;-72
2023/11/28 04:33:34;;;;;;;55.60;2.43;;;;;;;;;;5053919;28;20456;-73
2023/11/28 04:36:01;;;;;;;55.47;2.30;;;;;;;;;;5046141;28;20497;-72
2023/11/28 04:38:28;;;;;;;55.67;2.40;;;;;;;;;;5053766;28;20950;-72
2023/11/28 04:40:55;;;;;;;55.43;2.20;;;;;;;;;;5053828;28;20548;-72
2023/11/28 04:43:22;;;;;;;55.67;2.80;;;;;;;;;;5053498;28;21070;-72
2023/11/28 04:45:51;;;;;;;55.57;2.20;;;;;;;;;;5053564;28;20489;-72
2023/11/28 04:48:19;;;;;;;55.50;2.50;;;;;;;;;;5053792;28;20528;-72
2023/11/28 04:50:46;;;;;;;55.53;2.93;;;;;;;;;;5053388;28;20537;-73
2023/11/28 04:53:13;;;;;;;55.70;2.60;;;;;;;;;;5053617;28;20970;-73
2023/11/28 04:55:40;;;;;;;55.63;2.60;;;;;;;;;;5053444;28;20441;-73
2023/11/28 04:58:07;;;;;;;55.50;2.33;;;;;;;;;;5052498;28;20450;-73
2023/11/28 05:00:34;;;;;;;55.70;2.57;;;;;;;;;;5053341;28;20450;-73
2023/11/28 05:03:03;;;;;;;55.60;2.50;;;;;;;;;;5053329;28;20461;-73
2023/11/28 05:05:30;;;;;;;55.67;2.50;;;;;;;;;;5053102;28;20834;-73
2023/11/28 05:07:57;;;;;;;55.60;2.70;;;;;;;;;;5053460;28;20520;-73
2023/11/28 05:10:24;;;;;;;55.70;2.50;;;;;;;;;;5053318;28;20462;-73
2023/11/28 05:12:51;;;;;;;55.57;2.70;;;;;;;;;;5053107;28;20470;-72
2023/11/28 05:15:18;;;;;;;55.57;2.60;;;;;;;;;;5053049;28;20533;-72
2023/11/28 05:17:45;;;;;;;55.70;2.60;;;;;;;;;;5053086;28;20450;-72
2023/11/28 05:20:14;;;;;;;55.90;3.13;;;;;;;;;;5052919;28;20954;-73
2023/11/28 05:22:41;;;;;;;55.37;2.57;;;;;;;;;;5052789;28;20474;-72
2023/11/28 05:25:08;;;;;;;55.60;2.40;;;;;;;;;;5052918;28;20728;-72
2023/11/28 05:27:35;;;;;;;55.57;2.50;;;;;;;;;;5053025;28;20450;-72
2023/11/28 05:30:03;;;;;;;55.87;2.80;;;;;;;;;;5052793;28;20456;-72
2023/11/28 05:32:30;;;;;;;55.70;2.77;;;;;;;;;;5052740;28;20477;-72
2023/11/28 05:34:58;;;;;;;55.60;2.70;;;;;;;;;;5052912;28;20445;-72
2023/11/28 05:37:26;;;;;;;55.70;2.77;;;;;;;;;;5052919;28;20529;-72
2023/11/28 05:39:53;;;;;;;55.60;2.90;;;;;;;;;;5052471;28;20973;-72
2023/11/28 05:42:20;;;;;;;56.00;3.00;;;;;;;;;;5052667;28;20815;-72
2023/11/28 05:44:47;;;;;;;55.80;2.63;;;;;;;;;;5052529;28;20818;-72
2023/11/28 05:47:14;;;;;;;55.77;2.90;;;;;;;;;;5052383;28;20512;-72
2023/11/28 05:49:41;;;;;;;55.67;2.50;;;;;;;;;;5052504;28;20449;-72
2023/11/28 05:52:09;;;;;;;55.87;2.73;;;;;;;;;;5052284;28;20978;-71
2023/11/28 05:54:37;;;;;;;55.63;2.67;;;;;;;;;;5052429;28;20453;-72
2023/11/28 05:57:04;;;;;;;55.70;2.83;;;;;;;;;;5052299;28;20442;-72
2023/11/28 05:59:31;;;;;;;55.70;2.67;;;;;;;;;;5052092;28;20442;-72
2023/11/28 06:02:00;;;;;;;55.90;2.87;;;;;;;;;;5052228;28;20465;-72
2023/11/28 06:04:27;;;;;;;55.60;2.63;;;;;;;;;;5052213;28;20442;-72
2023/11/28 06:06:54;;;;;;;55.67;2.57;;;;;;;;;;5052114;28;20489;-72
2023/11/28 06:09:23;;;;;;;55.57;2.40;;;;;;;;;;5051617;28;20453;-71
2023/11/28 06:11:51;;;;;;;55.77;2.60;;;;;;;;;;5051792;28;20517;-72
2023/11/28 06:14:19;;;;;;;56.05;2.90;;;;;;;;;;5051717;28;20450;-72
2023/11/28 06:16:46;;;;;;;56.00;2.60;;;;;;;;;;5051834;28;20206;-71
2023/11/28 06:19:13;;;;;;;55.67;3.10;;;;;;;;;;5051824;28;20939;-72
2023/11/28 06:21:40;;;;;;;55.70;2.73;;;;;;;;;;5051809;28;20834;-72
2023/11/28 06:24:07;;;;;;;55.53;2.47;;;;;;;;;;5051721;28;20454;-72
2023/11/28 06:26:34;;;;;;;55.70;2.80;;;;;;;;;;5051640;28;20485;-72
2023/11/28 06:29:03;;;;;;;55.88;2.90;;;;;;;;;;5051613;28;20470;-72
2023/11/28 06:31:30;;;;;;;56.00;3.20;;;;;;;;;;5051875;28;20223;-72
2023/11/28 06:33:57;;;;;;;55.90;2.45;;;;;;;;;;5051540;28;20207;-72
2023/11/28 06:36:24;;;;;;;55.57;2.90;;;;;;;;;;5051540;28;20666;-72
2023/11/28 06:38:52;;;;;;;55.83;2.80;;;;;;;;;;5051281;28;20453;-72
2023/11/28 06:41:19;;;;;;;55.90;2.90;;;;;;;;;;5051112;28;20504;-72
2023/11/28 06:43:46;;;;;;;55.95;3.10;;;;;;;;;;5051394;28;20555;-72
2023/11/28 06:46:15;;;;;;;55.78;2.50;;;;;;;;;;5051531;28;20223;-72
2023/11/28 06:48:42;;;;;;;55.80;2.90;;;;;;;;;;5051267;28;20204;-72
2023/11/28 06:51:10;;;;;;;56.10;2.70;;;;;;;;;;5051082;28;20210;-72
2023/11/28 06:53:38;;;;;;;55.97;2.97;;;;;;;;;;5051225;28;20679;-72
2023/11/28 06:56:05;;;;;;;55.97;2.72;;;;;;;;;;5051048;28;20234;-72
2023/11/28 06:58:32;;;;;;;56.00;2.92;;;;;;;;;;5051091;28;20712;-72
2023/11/28 07:00:59;;;;;;;56.00;2.80;;;;;;;;;;5051293;28;20671;-72
2023/11/28 07:03:31;;;;;;;56.10;2.80;;;;;;;;;;5050983;28;20233;-72
2023/11/28 07:05:58;;;;;;;56.10;3.00;;;;;;;;;;5051263;28;20667;-72
2023/11/28 07:08:25;;;;;;;56.00;3.00;;;;;;;;;;5051073;28;20203;-72
2023/11/28 07:10:52;;;;;;;57.33;3.97;;;;;;;;;;5051128;28;20211;-72
2023/11/28 07:13:19;;;;;;;56.30;3.47;;;;;;;;;;5051265;28;20300;-72
2023/11/28 07:15:47;;;;;;;56.00;2.90;;;;;;;;;;5051247;28;20587;-73
2023/11/28 07:18:19;;;;;;;57.28;3.35;;;;;;;;;;5051159;28;20252;-73
2023/11/28 07:20:48;;;;;;;56.00;3.00;;;;;;;;;;5050286;28;20211;-73
2023/11/28 07:23:16;;;;;;;55.88;2.83;;;;;;;;;;5051093;28;20270;-72
2023/11/28 07:25:44;;;;;;;55.70;2.60;;;;;;;;;;5050751;28;20286;-73
2023/11/28 07:28:11;;;;;;;56.08;2.92;;;;;;;;;;5051057;28;20198;-73
2023/11/28 07:30:38;;;;;;;55.88;2.80;;;;;;;;;;5050750;28;20206;-73
2023/11/28 07:33:05;;;;;;;55.97;2.90;;;;;;;;;;5050716;28;20228;-73
2023/11/28 07:35:32;;;;;;;55.90;2.70;;;;;;;;;;5050356;28;20306;-72
2023/11/28 07:38:02;;;;;;;56.00;2.90;;;;;;;;;;5050850;28;20221;-72
2023/11/28 07:40:33;;;;;;;55.92;2.60;;;;;;;;;;5050760;28;20247;-73
2023/11/28 07:43:00;;;;;;;56.17;3.28;;;;;;;;;;5050714;28;20238;-72
2023/11/28 07:45:27;;;;;;;56.22;2.88;;;;;;;;;;5050747;28;20201;-73
2023/11/28 07:47:55;;;;;;;56.00;2.70;;;;;;;;;;5050560;28;20700;-72
2023/11/28 07:50:23;;;;;;;55.97;2.70;;;;;;;;;;5050823;28;20215;-72
2023/11/28 07:52:50;;;;;;;56.00;3.00;;;;;;;;;;5050503;28;20230;-72
2023/11/28 07:55:18;;;;;;;55.78;2.50;;;;;;;;;;5050805;28;20586;-72
2023/11/28 07:57:45;;;;;;;55.95;2.88;;;;;;;;;;5048278;28;20195;-72
2023/11/28 08:00:13;;;;;;;56.08;2.67;;;;;;;;;;5049902;28;20217;-72
2023/11/28 08:02:41;;;;;;;56.20;3.10;;;;;;;;;;5050342;28;20227;-72
2023/11/28 08:05:08;;;;;;;56.10;3.00;;;;;;;;;;5050349;28;20680;-72
2023/11/28 08:07:35;;;;;;;56.30;3.38;;;;;;;;;;5050469;28;20219;-72
2023/11/28 08:10:02;;;;;;;55.97;3.00;;;;;;;;;;5050244;28;20218;-72
2023/11/28 08:12:30;;;;;;;56.08;2.97;;;;;;;;;;5050411;28;20230;-72
2023/11/28 08:14:58;;;;;;;56.03;2.80;;;;;;;;;;5050760;28;20214;-72
2023/11/28 08:17:25;;;;;;;56.20;3.10;;;;;;;;;;5050982;28;20204;-72
2023/11/28 08:19:52;;;;;;;56.08;3.10;;;;;;;;;;5050593;28;20209;-72
2023/11/28 08:22:19;;;;;;;56.17;3.25;;;;;;;;;;5050424;28;20227;-73
2023/11/28 08:24:46;;;;;;;56.28;3.30;;;;;;;;;;5050464;28;20625;-73
2023/11/28 08:27:15;;;;;;;56.17;3.10;;;;;;;;;;5050518;28;20233;-72
2023/11/28 08:29:44;;;;;;;56.20;2.90;;;;;;;;;;5050370;28;20219;-73
2023/11/28 08:32:11;;;;;;;56.10;3.30;;;;;;;;;;5053497;28;20233;-73
2023/11/28 08:34:38;;;;;;;56.15;2.85;;;;;;;;;;5055873;28;20202;-73
2023/11/28 08:37:05;;;;;;;56.20;3.25;;;;;;;;;;5056168;28;20214;-73
2023/11/28 08:39:32;;;;;;;56.10;3.00;;;;;;;;;;5055214;28;20266;-73
2023/11/28 08:41:59;;;;;;;56.03;3.42;;;;;;;;;;5053991;28;20650;-73
2023/11/28 08:44:26;;;;;;;55.88;2.75;;;;;;;;;;5053670;28;20222;-73
2023/11/28 08:46:55;;;;;;;56.17;3.00;;;;;;;;;;5053435;28;20230;-72
2023/11/28 08:49:23;;;;;;;55.97;2.90;;;;;;;;;;5053758;28;20203;-73
2023/11/28 08:51:50;;;;;;;56.10;2.90;;;;;;;;;;5053524;28;20728;-74
2023/11/28 08:54:17;;;;;;;56.00;3.00;;;;;;;;;;5053526;28;20203;-73
2023/11/28 08:56:44;;;;;;;55.90;2.90;;;;;;;;;;5053338;28;20208;-73
2023/11/28 08:59:11;;;;;;;56.03;2.70;;;;;;;;;;5053721;28;20199;-73
2023/11/28 09:01:38;;;;;;;55.95;2.70;;;;;;;;;;5053605;28;20223;-73
2023/11/28 09:04:07;;;;;;;55.90;2.80;;;;;;;;;;5053432;28;20222;-73
2023/11/28 09:06:34;;;;;;;56.10;2.90;;;;;;;;;;5053029;28;20227;-72
2023/11/28 09:09:01;;;;;;;55.80;2.90;;;;;;;;;;5053114;28;20241;-73
2023/11/28 09:11:28;;;;;;;56.10;2.80;;;;;;;;;;5052920;28;20227;-73
2023/11/28 09:13:55;;;;;;;56.53;3.15;;;;;;;;;;5053501;28;20206;-73
2023/11/28 09:16:22;;;;;;;56.08;2.70;;;;;;;;;;5053637;28;20746;-73
2023/11/28 09:18:50;;;;;;;56.20;3.03;;;;;;;;;;5053244;28;20687;-73
2023/11/28 09:21:18;;;;;;;56.17;3.08;;;;;;;;;;5052727;28;20206;-72
2023/11/28 09:23:45;;;;;;;56.08;2.97;;;;;;;;;;5052390;28;20207;-73
2023/11/28 09:26:13;;;;;;;55.95;2.85;;;;;;;;;;5052705;28;20235;-73
2023/11/28 09:28:40;;;;;;;56.03;2.80;;;;;;;;;;5053054;28;20206;-73
2023/11/28 09:31:07;;;;;;;56.20;2.63;;;;;;;;;;5052601;28;20198;-73
2023/11/28 09:33:35;;;;;;;56.05;3.05;;;;;;;;;;5052775;28;20308;-73
2023/11/28 09:36:03;;;;;;;56.08;3.10;;;;;;;;;;5053471;28;20246;-73
2023/11/28 09:38:32;;;;;;;55.97;2.80;;;;;;;;;;5052789;28;20238;-73
2023/11/28 09:40:59;;;;;;;56.03;3.10;;;;;;;;;;5052948;28;20215;-73
2023/11/28 09:43:27;;;;;;;55.90;2.80;;;;;;;;;;5052120;28;20666;-72
2023/11/28 09:45:56;;;;;;;56.10;2.92;;;;;;;;;;5052581;28;20671;-73
2023/11/28 09:48:26;;;;;;;55.88;3.00;;;;;;;;;;5052409;28;20277;-73
2023/11/28 09:50:54;;;;;;;56.05;2.80;;;;;;;;;;5052191;28;20270;-73
2023/11/28 09:53:23;;;;;;;55.97;2.80;;;;;;;;;;5052458;28;20219;-73
2023/11/28 09:55:53;;;;;;;56.08;2.70;;;;;;;;;;5052804;28;20600;-73
2023/11/28 09:58:20;;;;;;;56.10;2.90;;;;;;;;;;5044598;28;20203;-72
2023/11/28 10:00:48;;;;;;;55.97;3.28;;;;;;;;;;5052343;28;20208;-72
2023/11/28 10:03:16;;;;;;;56.15;2.88;;;;;;;;;;5051859;28;20234;-72
2023/11/28 10:05:43;;;;;;;55.78;2.70;;;;;;;;;;5051915;28;20763;-72
2023/11/28 10:08:10;;;;;;;55.88;2.90;;;;;;;;;;5052051;28;20227;-72
2023/11/28 10:10:39;;;;;;;56.10;2.70;;;;;;;;;;5051858;28;20211;-72
2023/11/28 10:13:08;;;;;;;56.05;2.97;;;;;;;;;;5052798;28;20231;-74
2023/11/28 10:15:35;;;;;;;55.90;2.67;;;;;;;;;;5052230;28;20256;-73
2023/11/28 10:18:02;;;;;;;56.10;2.90;;;;;;;;;;5051597;28;20295;-73
2023/11/28 10:20:30;;;;;;;56.05;2.60;;;;;;;;;;5051782;28;20290;-73
2023/11/28 10:22:57;;;;;;;56.20;3.17;;;;;;;;;;5051922;28;20238;-73
2023/11/28 10:25:24;;;;;;;56.10;3.15;;;;;;;;;;5051791;28;20205;-73
2023/11/28 10:27:57;;;;;;;56.20;3.20;;;;;;;;;;5052116;28;20227;-73
2023/11/28 10:30:27;;;;;;;56.10;2.88;;;;;;;;;;5044235;28;20656;-73
2023/11/28 10:32:57;;;;;;;56.05;2.80;;;;;;;;;;5051493;28;20272;-73
2023/11/28 10:35:24;;;;;;;55.90;3.13;;;;;;;;;;5051702;28;20207;-73
2023/11/28 10:37:52;;;;;;;55.97;3.00;;;;;;;;;;5051722;28;20210;-73
2023/11/28 10:40:19;;;;;;;55.78;2.70;;;;;;;;;;5043379;28;20239;-73
2023/11/28 10:42:46;;;;;;;56.05;2.80;;;;;;;;;;5051525;28;20230;-73
2023/11/28 10:45:15;;;;;;;56.42;2.95;;;;;;;;;;5051202;28;20213;-73
2023/11/28 10:47:44;;;;;;;55.83;3.15;;;;;;;;;;5051532;28;20222;-73
2023/11/28 10:50:13;;;;;;;56.15;3.10;;;;;;;;;;5051258;28;20210;-73
2023/11/28 10:52:40;;;;;;;55.80;2.90;;;;;;;;;;5051633;28;20258;-73
2023/11/28 10:55:09;;;;;;;55.90;2.90;;;;;;;;;;5050796;28;20207;-73
2023/11/28 10:57:42;;;;;;;56.30;3.03;;;;;;;;;;5050989;28;20238;-74
2023/11/28 11:00:11;;;;;;;55.90;2.50;;;;;;;;;;5051312;28;20211;-73
2023/11/28 11:02:38;;;;;;;56.10;2.80;;;;;;;;;;5051300;28;20590;-73
2023/11/28 11:05:07;;;;;;;55.97;2.90;;;;;;;;;;5051026;28;20206;-73
2023/11/28 11:07:35;;;;;;;56.00;2.75;;;;;;;;;;5051080;28;20231;-73
2023/11/28 11:10:08;;;;;;;56.10;3.35;;;;;;;;;;5050743;28;20225;-73
2023/11/28 11:12:37;;;;;;;55.88;3.08;;;;;;;;;;5051274;28;20310;-73
2023/11/28 11:15:08;;;;;;;55.97;2.72;;;;;;;;;;5050927;28;20705;-73
2023/11/28 11:17:37;;;;;;;55.88;2.58;;;;;;;;;;5051315;28;20259;-73
2023/11/28 11:20:06;;;;;;;55.90;2.72;;;;;;;;;;5050800;28;20210;-72
2023/11/28 11:22:37;;;;;;;55.97;2.67;;;;;;;;;;5050828;28;20226;-73
2023/11/28 11:25:06;;;;;;;56.38;3.22;;;;;;;;;;5050977;28;20659;-73
2023/11/28 11:27:33;;;;;;;56.00;2.90;;;;;;;;;;5050814;28;20254;-73
2023/11/28 11:30:05;;;;;;;55.80;2.90;;;;;;;;;;5050934;28;20203;-73
2023/11/28 11:32:34;;;;;;;56.30;3.60;;;;;;;;;;5050968;28;20231;-73
2023/11/28 11:35:04;;;;;;;56.30;2.97;;;;;;;;;;5050514;28;20246;-73
2023/11/28 11:37:31;;;;;;;55.88;2.60;;;;;;;;;;5051248;28;20202;-73
2023/11/28 11:40:00;;;;;;;56.00;2.60;;;;;;;;;;5050697;28;20210;-73
2023/11/28 11:42:29;;;;;;;55.97;3.08;;;;;;;;;;5050799;28;20231;-73
2023/11/28 11:44:57;;;;;;;55.88;2.80;;;;;;;;;;5050694;28;20301;-73
2023/11/28 11:47:25;;;;;;;56.00;3.05;;;;;;;;;;5050698;28;20220;-73
2023/11/28 11:49:53;;;;;;;56.05;2.80;;;;;;;;;;5050846;28;20215;-73
2023/11/28 11:52:24;;;;;;;56.20;3.10;;;;;;;;;;5050837;28;20226;-73
2023/11/28 11:54:52;;;;;;;56.10;3.10;;;;;;;;;;5050436;28;20206;-73
2023/11/28 11:57:20;;;;;;;56.15;2.90;;;;;;;;;;5050589;28;20204;-73
2023/11/28 11:59:48;;;;;;;55.97;3.20;;;;;;;;;;5050657;28;20215;-73
2023/11/28 12:02:15;;;;;;;56.08;3.00;;;;;;;;;;5050862;28;20574;-73
2023/11/28 12:04:43;;;;;;;56.38;3.17;;;;;;;;;;5050819;28;20302;-73
2023/11/28 12:07:11;;;;;;;55.80;2.72;;;;;;;;;;5051354;28;20675;-73
2023/11/28 12:09:38;;;;;;;55.75;3.00;;;;;;;;;;5053673;28;20222;-73
2023/11/28 12:12:05;;;;;;;56.20;3.05;;;;;;;;;;5053402;28;20231;-73
2023/11/28 12:14:34;;;;;;;55.78;3.00;;;;;;;;;;5053359;28;20210;-73
2023/11/28 12:17:02;;;;;;;55.97;3.00;;;;;;;;;;5054055;28;20232;-73
2023/11/28 12:19:29;;;;;;;55.97;3.00;;;;;;;;;;5053824;28;20195;-73
2023/11/28 12:21:58;;;;;;;55.95;2.83;;;;;;;;;;5053631;28;20590;-73
2023/11/28 12:24:25;;;;;;;55.97;2.60;;;;;;;;;;5053804;28;20207;-73
2023/11/28 12:26:52;;;;;;;55.88;2.75;;;;;;;;;;5053982;28;20225;-73
2023/11/28 12:29:19;;;;;;;56.00;3.30;;;;;;;;;;5054153;28;20230;-73
2023/11/28 12:31:48;;;;;;;55.97;2.63;;;;;;;;;;5054031;28;20733;-73
2023/11/28 12:34:15;;;;;;;56.15;3.05;;;;;;;;;;5053728;28;20590;-73
2023/11/28 12:36:47;;;;;;;56.10;3.20;;;;;;;;;;5052964;28;20203;-73
2023/11/28 12:39:15;;;;;;;56.15;2.80;;;;;;;;;;5053124;28;20745;-73
2023/11/28 12:41:42;;;;;;;56.90;3.08;;;;;;;;;;5052514;28;20221;-73
2023/11/28 12:44:10;;;;;;;56.10;2.80;;;;;;;;;;5052729;28;20209;-73
2023/11/28 12:46:38;;;;;;;56.10;3.30;;;;;;;;;;5053013;28;20210;-73
2023/11/28 12:49:08;;;;;;;56.10;2.70;;;;;;;;;;5053401;28;20229;-73
2023/11/28 12:51:36;;;;;;;56.00;2.85;;;;;;;;;;5052700;28;20223;-73
2023/11/28 12:54:04;;;;;;;55.90;3.00;;;;;;;;;;5053266;28;20780;-73
2023/11/28 12:56:34;;;;;;;55.95;2.83;;;;;;;;;;5052813;28;20208;-73
2023/11/28 12:59:02;;;;;;;55.85;2.75;;;;;;;;;;5053563;28;20203;-73
2023/11/28 13:01:29;;;;;;;56.05;3.03;;;;;;;;;;5053201;28;20222;-72
2023/11/28 13:03:57;;;;;;;56.30;3.35;;;;;;;;;;5053494;28;20286;-73
2023/11/28 13:06:26;;;;;;;56.20;3.22;;;;;;;;;;5052859;28;20730;-73
2023/11/28 13:08:53;;;;;;;55.90;2.80;;;;;;;;;;5053046;28;20259;-73
2023/11/28 13:11:21;;;;;;;55.88;2.83;;;;;;;;;;5053014;28;20219;-73
2023/11/28 13:13:48;;;;;;;56.03;2.70;;;;;;;;;;5053354;28;20199;-73
2023/11/28 13:16:15;;;;;;;55.88;2.90;;;;;;;;;;5052411;28;20227;-73
2023/11/28 13:18:42;;;;;;;56.20;2.80;;;;;;;;;;5052245;28;20203;-73
2023/11/28 13:21:10;;;;;;;56.00;2.90;;;;;;;;;;5052220;28;20293;-73
2023/11/28 13:23:38;;;;;;;55.95;2.70;;;;;;;;;;5052597;28;20207;-73
2023/11/28 13:26:05;;;;;;;55.80;2.90;;;;;;;;;;5052711;28;20578;-73
2023/11/28 13:28:32;;;;;;;55.97;2.60;;;;;;;;;;5050963;28;20218;-73
2023/11/28 13:31:00;;;;;;;55.97;2.80;;;;;;;;;;5051289;28;20690;-73
2023/11/28 13:33:29;;;;;;;56.08;3.03;;;;;;;;;;5050918;28;20628;-73
2023/11/28 13:35:58;;;;;;;56.20;3.17;;;;;;;;;;5051820;28;20210;-73
2023/11/28 13:38:26;;;;;;;56.10;2.80;;;;;;;;;;5052198;28;20674;-73
2023/11/28 13:40:55;;;;;;;56.40;3.53;;;;;;;;;;5052876;28;20207;-73
2023/11/28 13:43:23;;;;;;;56.38;3.17;;;;;;;;;;5052464;28;20230;-72
2023/11/28 13:45:50;;;;;;;56.00;2.50;;;;;;;;;;5052800;28;20561;-72
2023/11/28 13:48:17;;;;;;;55.90;2.70;;;;;;;;;;5052490;28;20230;-72
2023/11/28 13:50:44;;;;;;;55.97;3.05;;;;;;;;;;5052460;28;20202;-72
2023/11/28 13:53:12;;;;;;;55.90;2.70;;;;;;;;;;5052692;28;20328;-72
2023/11/28 13:55:40;;;;;;;55.90;2.90;;;;;;;;;;5052739;28;20207;-72
2023/11/28 13:58:09;;;;;;;56.20;3.35;;;;;;;;;;5052915;28;20202;-72
2023/11/28 14:00:36;;;;;;;56.50;3.53;;;;;;;;;;5053028;28;20207;-72
2023/11/28 14:03:03;;;;;;;55.97;2.70;;;;;;;;;;5053068;28;20250;-72
2023/11/28 14:05:30;;;;;;;56.15;2.60;;;;;;;;;;5053661;28;20214;-72
2023/11/28 14:07:58;;;;;;;56.05;2.78;;;;;;;;;;5060858;28;20205;-72
2023/11/28 14:10:27;;;;;;;56.28;3.00;;;;;;;;;;5067928;28;20602;-72
2023/11/28 14:12:54;;;;;;;56.10;3.13;;;;;;;;;;5069486;28;20258;-72
2023/11/28 14:15:23;;;;;;;56.08;3.05;;;;;;;;;;5069517;28;20262;-72
2023/11/28 14:17:51;;;;;;;56.10;3.10;;;;;;;;;;5062122;28;20249;-72
2023/11/28 14:20:18;;;;;;;56.20;3.65;;;;;;;;;;5068015;28;20265;-72
2023/11/28 14:22:46;;;;;;;55.88;2.80;;;;;;;;;;5069844;28;20227;-72
2023/11/28 14:25:14;;;;;;;55.85;2.80;;;;;;;;;;5071360;28;20264;-72
2023/11/28 14:27:42;;;;;;;55.88;2.70;;;;;;;;;;5072895;28;20234;-72
2023/11/28 14:30:09;;;;;;;56.10;2.90;;;;;;;;;;5069903;28;20228;-72
2023/11/28 14:32:40;;;;;;;56.30;3.20;;;;;;;;;;5074220;28;20291;-72